Bluffton, IN

11:50 AM EDT on August 29, 2015 (GMT -0400)
Hedges Farms | | Change Station
CLOSE
Current Station
Personal Weather Station
Location: Bluffton, IN
Elevation: 860 ft
Nearby Weather Stations

Elev 860 ft 40.79 °N, 85.15 °W | Updated 16 seconds ago

Partly Cloudy
Partly Cloudy
78.1 °F
Feels Like 80 °F
N
6.7
Wind Variable Wind from WSW
Gusts 9.8 mph

Today
High -- | Low -- °F
--% Chance of Precip.
Yesterday
High -- | Low -- °F
Precip. -- in
7:04 AM 8:18 PM
Full, 100% visible
Pressure 30.10 in
Visibility 10.0 miles
Clouds Mostly Cloudy 4700 ft
Mostly Cloudy 5500 ft
Overcast 19000 ft
Heat Index 80 °F
Dew Point 64 °F
Humidity 61%
Rainfall 0.00 in
Snow Depth Not available.
UV 5.0 out of 12
Pollen 9.30 out of 12
Air Quality Not available.
Flu Activity Not available.
METAR KFWA 291454Z 00000KT 10SM BKN047 BKN055 OVC190 24/18 A3011 RMK AO2 SLP191 T02390178 57003 $
Pressure 30.10 in
Visibility 10.0 miles
Clouds Mostly Cloudy 4700 ft
Mostly Cloudy 5500 ft
Overcast 19000 ft
Heat Index 80 °F
Dew Point 64 °F
Humidity 61%
Rainfall 0.00 in
Snow Depth Not available.
UV 5.0 out of 12
Pollen 9.30 out of 12
Air Quality Not available.
Flu Activity Not available.
METAR KFWA 291454Z 00000KT 10SM BKN047 BKN055 OVC190 24/18 A3011 RMK AO2 SLP191 T02390178 57003 $

10-Day Weather Forecast

×

Almanac

Astronomy

Aug. 29, 2015 Rise Set
Actual Time
Civil Twilight
Nautical Twilight
Astronomical Twilight
Moon
Length of Visible Light
Length of Day
Tomorrow will be .
, % of the Moon is Illuminated

Today's Extremes

State Highs State Lows

Community

WunderPhotos

Upload Photos

1,850,700 photos uploaded!

WunderBlogs® & News

Nearby

Air Quality

  Air Quality AQ Index Pollutant
Not available.

Snow Depth

Station Depth Elevation

Earthquake Activity

City Distance Mag. Time & Date
Minimum magnitude displayed is 2.5.

Coastal Water Temperatures

Place Temperature

Stations

Nearby Weather Stations

Station Location Temp. Windchill Dew Point Humidity Wind Precip. Elev Updated Type